Pine Ridge Reservation, South Dakota
Current Conditions -  °F | °C
As of 1:52 PM on Friday 24 Oct 2014 (Local Time) from KIEN Reporting Station
Clear Clear  
Wind Chill: 76°   Ceiling: Unl
Heat Index: 76°   Visibility: 10mi
Dew Point: 35°   Wind: 3mph
Humidity: 23%   Direction: NA
Pressure: 30"   Gusts: NA
Location:  43.3266°N, 102.736°W
Report Text: KIEN 241952Z AUTO VRB03KT 10SM CLR 24/02 A3000 RMK AO2 SLP147 T02440017
Loading
Personal Weather Stations






























Interactive Weather Map
Tropical Storm Tracking
New forecast layout! Learn more

10-Day Weather Forecast

Advertisements
Track Severe Weather on mobile